createdAt,value
2023-05-11T00:01:05.495Z,100293.06
2023-05-11T00:03:32.981Z,100268.78
2023-05-11T00:06:00.671Z,100247.56
2023-05-11T00:08:28.364Z,100259.38
2023-05-11T00:10:55.679Z,100250.63
2023-05-11T00:13:22.816Z,100268.78
2023-05-11T00:15:49.954Z,100269.41
2023-05-11T00:18:16.963Z,100269.88
2023-05-11T00:20:44.067Z,100278.50
2023-05-11T00:23:11.285Z,100261.16
2023-05-11T00:25:39.256Z,100251.44
2023-05-11T00:28:06.767Z,100254.38
2023-05-11T00:30:33.842Z,100283.84
2023-05-11T00:33:00.588Z,100282.34
2023-05-11T00:35:27.573Z,100282.53
2023-05-11T00:37:54.277Z,100278.50
2023-05-11T00:40:21.000Z,100254.69
2023-05-11T00:42:48.016Z,100261.63
2023-05-11T00:45:15.864Z,100269.25
2023-05-11T00:47:42.560Z,100262.13
2023-05-11T00:50:10.945Z,100264.88
2023-05-11T00:52:37.822Z,100271.84
2023-05-11T00:55:05.002Z,100256.44
2023-05-11T00:57:33.559Z,100263.72
2023-05-11T01:00:03.023Z,100276.22
2023-05-11T01:02:31.208Z,100263.25
2023-05-11T01:04:58.266Z,100266.31
2023-05-11T01:07:29.485Z,100262.47
2023-05-11T01:10:11.412Z,100269.13
2023-05-11T01:12:48.613Z,100274.09
2023-05-11T01:15:45.056Z,100252.59
2023-05-11T01:18:42.587Z,100269.13
2023-05-11T01:21:15.433Z,100264.38
2023-05-11T01:24:08.310Z,100276.84
2023-05-11T01:26:56.442Z,100272.97
2023-05-11T01:29:31.898Z,100267.13
2023-05-11T01:31:59.006Z,100259.53
2023-05-11T01:34:30.971Z,100270.56
2023-05-11T01:36:59.237Z,100253.53
2023-05-11T01:39:36.195Z,100249.97
2023-05-11T01:42:08.309Z,100249.84
2023-05-11T01:44:34.976Z,100251.63
2023-05-11T01:47:02.973Z,100250.63
2023-05-11T01:49:31.657Z,100274.41
2023-05-11T01:51:58.363Z,100259.69
2023-05-11T01:54:25.254Z,100259.38
2023-05-11T01:56:53.557Z,100267.81
2023-05-11T01:59:20.430Z,100266.81
2023-05-11T02:01:47.120Z,100248.53
2023-05-11T02:04:14.232Z,100236.41
2023-05-11T02:06:40.957Z,100270.88
2023-05-11T02:09:08.698Z,100261.94
2023-05-11T02:11:35.756Z,100242.22
2023-05-11T02:14:03.358Z,100217.78
2023-05-11T02:16:30.260Z,100265.19
2023-05-11T02:18:57.439Z,100238.50
2023-05-11T02:21:24.352Z,100256.94
2023-05-11T02:23:51.624Z,100251.28
2023-05-11T02:26:18.946Z,100251.13
2023-05-11T02:28:46.000Z,100244.81
2023-05-11T02:31:18.108Z,100255.97
2023-05-11T02:33:52.101Z,100267.16
2023-05-11T02:36:22.652Z,100247.09
2023-05-11T02:38:52.842Z,100253.56
2023-05-11T02:41:22.644Z,100267.81
2023-05-11T02:43:51.879Z,100261.94
2023-05-11T02:46:24.070Z,100265.84
2023-05-11T02:48:56.873Z,100273.16
2023-05-11T02:51:30.013Z,100268.44
2023-05-11T02:53:57.413Z,100263.75
2023-05-11T02:56:26.522Z,100243.97
2023-05-11T02:58:54.935Z,100271.03
2023-05-11T03:01:26.395Z,100259.84
2023-05-11T03:03:55.443Z,100267.63
2023-05-11T03:06:23.371Z,100244.47
2023-05-11T03:08:54.088Z,100252.25
2023-05-11T03:11:22.342Z,100232.19
2023-05-11T03:13:50.417Z,100217.78
2023-05-11T03:16:21.024Z,100262.28
2023-05-11T03:18:49.577Z,100264.56
2023-05-11T03:21:20.756Z,100251.59
2023-05-11T03:23:48.072Z,100261.94
2023-05-11T03:26:16.784Z,100270.38
2023-05-11T03:28:44.311Z,100248.22
2023-05-11T03:31:12.085Z,100238.16
2023-05-11T03:33:38.968Z,100239.63
2023-05-11T03:36:08.346Z,100243.84
2023-05-11T03:38:35.364Z,100239.13
2023-05-11T03:41:04.709Z,100269.75
2023-05-11T03:43:34.945Z,100254.19
2023-05-11T03:46:02.017Z,100231.69
2023-05-11T03:48:29.949Z,100260.97
2023-05-11T03:50:56.564Z,100253.56
2023-05-11T03:53:23.789Z,100242.22
2023-05-11T03:55:52.829Z,100221.66
2023-05-11T03:58:19.944Z,100255.16
2023-05-11T04:00:46.577Z,100244.63
2023-05-11T04:03:14.298Z,100255.16
2023-05-11T04:05:44.663Z,100210.50
2023-05-11T04:08:13.184Z,100259.22
2023-05-11T04:10:40.980Z,100250.94
2023-05-11T04:13:08.268Z,100265.88
2023-05-11T04:15:37.893Z,100249.19
2023-05-11T04:18:04.716Z,100258.09
2023-05-11T04:20:35.207Z,100254.50
2023-05-11T04:23:05.566Z,100253.56
2023-05-11T04:25:32.682Z,100251.59
2023-05-11T04:27:59.375Z,100255.34
2023-05-11T04:30:26.782Z,100267.13
2023-05-11T04:32:54.388Z,100218.91
2023-05-11T04:35:22.295Z,100251.75
2023-05-11T04:37:49.667Z,100267.28
2023-05-11T04:40:16.846Z,100258.88
2023-05-11T04:42:44.807Z,100247.88
2023-05-11T04:45:17.718Z,100237.69
2023-05-11T04:47:47.646Z,100256.13
2023-05-11T04:50:14.619Z,100244.81
2023-05-11T04:52:41.355Z,100225.22
2023-05-11T04:55:08.337Z,100230.22
2023-05-11T04:57:35.226Z,100231.53
2023-05-11T05:00:05.011Z,100236.03
2023-05-11T05:02:33.342Z,100264.22
2023-05-11T05:05:01.228Z,100249.31
2023-05-11T05:07:27.865Z,100251.75
2023-05-11T05:09:55.587Z,100251.91
2023-05-11T05:12:22.342Z,100254.19
2023-05-11T05:14:49.247Z,100272.97
2023-05-11T05:17:16.507Z,100277.81
2023-05-11T05:19:43.112Z,100266.97
2023-05-11T05:22:13.469Z,100265.66
2023-05-11T05:24:41.197Z,100282.31
2023-05-11T05:27:09.482Z,100277.31
2023-05-11T05:29:36.634Z,100279.38
2023-05-11T05:32:03.557Z,100280.00
2023-05-11T05:34:30.171Z,100284.69
2023-05-11T05:36:57.580Z,100286.19
2023-05-11T05:39:27.848Z,100294.28
2023-05-11T05:41:55.677Z,100281.47
2023-05-11T05:44:23.651Z,100292.81
2023-05-11T05:46:50.638Z,100307.56
2023-05-11T05:49:17.433Z,100286.97
2023-05-11T05:51:44.393Z,100286.13
2023-05-11T05:54:13.300Z,100294.78
2023-05-11T05:56:40.940Z,100289.91
2023-05-11T05:59:10.934Z,100310.81
2023-05-11T06:01:41.644Z,100297.19
2023-05-11T06:04:09.141Z,100317.28
2023-05-11T06:06:36.682Z,100296.72
2023-05-11T06:09:04.257Z,100294.59
2023-05-11T06:11:31.388Z,100305.13
2023-05-11T06:13:59.212Z,100318.25
2023-05-11T06:16:27.335Z,100282.81
2023-05-11T06:18:54.555Z,100312.75
2023-05-11T06:21:21.585Z,100313.25
2023-05-11T06:23:56.825Z,100300.78
2023-05-11T06:26:27.055Z,100310.53
2023-05-11T06:28:54.701Z,100304.19
2023-05-11T06:31:24.379Z,100307.59
2023-05-11T06:33:52.273Z,100287.19
2023-05-11T06:36:23.830Z,100308.25
2023-05-11T06:38:51.565Z,100298.06
2023-05-11T06:41:18.753Z,100318.31
2023-05-11T06:43:45.497Z,100307.94
2023-05-11T06:46:22.580Z,100304.69
2023-05-11T06:48:50.625Z,100304.69
2023-05-11T06:51:18.523Z,100295.59
2023-05-11T06:53:45.555Z,100315.06
2023-05-11T06:56:16.149Z,100290.47
2023-05-11T06:58:43.337Z,100303.72
2023-05-11T07:01:11.698Z,100296.28
2023-05-11T07:03:41.459Z,100295.78
2023-05-11T07:06:08.304Z,100295.97
2023-05-11T07:08:34.955Z,100318.28
2023-05-11T07:11:01.621Z,100313.44
2023-05-11T07:13:28.995Z,100315.72
2023-05-11T07:15:57.727Z,100293.22
2023-05-11T07:18:24.893Z,100304.38
2023-05-11T07:20:51.828Z,100326.88
2023-05-11T07:23:22.079Z,100318.13
2023-05-11T07:25:48.863Z,100304.84
2023-05-11T07:28:16.061Z,100305.97
2023-05-11T07:30:43.078Z,100328.66
2023-05-11T07:33:10.142Z,100331.91
2023-05-11T07:35:36.930Z,100322.81
2023-05-11T07:38:05.238Z,100307.59
2023-05-11T07:40:32.435Z,100326.25
2023-05-11T07:43:02.000Z,100309.41
2023-05-11T07:45:28.784Z,100269.72
2023-05-11T07:47:56.333Z,100300.00
2023-05-11T07:50:24.592Z,100317.81
2023-05-11T07:52:55.859Z,100318.31
2023-05-11T07:55:25.363Z,100319.91
2023-05-11T07:57:54.494Z,100316.50
2023-05-11T08:00:22.329Z,100296.78
2023-05-11T08:02:53.382Z,100326.59
2023-05-11T08:05:20.464Z,100327.44
2023-05-11T08:07:47.850Z,100303.22
2023-05-11T08:10:14.879Z,100316.53
2023-05-11T08:12:42.118Z,100323.19
2023-05-11T08:15:11.264Z,100327.19
2023-05-11T08:17:38.811Z,100313.91
2023-05-11T08:20:13.391Z,100324.34
2023-05-11T08:22:40.448Z,100318.47
2023-05-11T08:25:07.900Z,100315.38
2023-05-11T08:27:34.636Z,100316.53
2023-05-11T08:30:01.816Z,100313.63
2023-05-11T08:32:29.838Z,100340.22
2023-05-11T08:34:57.762Z,100337.13
2023-05-11T08:37:24.898Z,100313.44
2023-05-11T08:39:51.736Z,100318.78
2023-05-11T08:42:18.845Z,100335.00
2023-05-11T08:44:45.959Z,100318.66
2023-05-11T08:49:43.476Z,100331.28
2023-05-11T08:52:10.361Z,100325.94
2023-05-11T08:54:37.475Z,100328.19
2023-05-11T08:57:04.927Z,100312.31
2023-05-11T08:59:34.449Z,100313.78
2023-05-11T09:02:02.682Z,100335.94
2023-05-11T09:04:29.383Z,100317.00
2023-05-11T09:06:58.353Z,100333.19
2023-05-11T09:09:25.837Z,100345.84
2023-05-11T09:11:54.441Z,100305.81
2023-05-11T09:14:27.005Z,100323.00
2023-05-11T09:17:01.648Z,100325.59
2023-05-11T09:19:28.587Z,100326.72
2023-05-11T09:21:56.136Z,100322.50
2023-05-11T09:24:25.381Z,100323.50
2023-05-11T09:27:10.435Z,100335.00
2023-05-11T09:29:37.680Z,100310.50
2023-05-11T09:32:05.025Z,100320.75
2023-05-11T09:34:35.779Z,100326.72
2023-05-11T09:37:03.561Z,100320.25
2023-05-11T09:39:38.261Z,100313.78
2023-05-11T09:42:17.573Z,100335.28
2023-05-11T09:44:45.625Z,100297.72
2023-05-11T09:47:16.133Z,100311.00
2023-05-11T09:49:46.143Z,100332.53
2023-05-11T09:52:13.927Z,100340.34
2023-05-11T09:54:44.918Z,100289.31
2023-05-11T09:57:26.103Z,100339.53
2023-05-11T09:59:53.663Z,100327.69
2023-05-11T10:02:23.920Z,100324.63
2023-05-11T10:04:52.663Z,100300.66
2023-05-11T10:07:35.237Z,100319.13
2023-05-11T10:10:06.847Z,100299.69
2023-05-11T10:12:34.259Z,100314.91
2023-05-11T10:15:06.185Z,100318.00
2023-05-11T10:17:33.671Z,100316.22
2023-05-11T10:20:01.568Z,100305.66
2023-05-11T10:22:29.238Z,100324.13
2023-05-11T10:24:59.742Z,100318.00
2023-05-11T10:27:26.417Z,100310.19
2023-05-11T10:29:54.089Z,100323.50
2023-05-11T10:32:22.748Z,100329.00
2023-05-11T10:34:53.157Z,100323.50
2023-05-11T10:37:21.553Z,100315.53
2023-05-11T10:39:50.650Z,100315.72
2023-05-11T10:42:37.687Z,100317.81
2023-05-11T10:45:10.683Z,100321.38
2023-05-11T10:48:07.987Z,100322.19
2023-05-11T10:50:53.956Z,100320.56
2023-05-11T10:53:59.114Z,100311.16
2023-05-11T10:57:02.705Z,100316.66
2023-05-11T10:59:47.792Z,100326.22
2023-05-11T11:02:14.603Z,100310.84
2023-05-11T11:04:45.859Z,100318.31
2023-05-11T11:07:21.372Z,100306.19
2023-05-11T11:10:01.980Z,100315.38
2023-05-11T11:12:29.768Z,100286.91
2023-05-11T11:15:05.473Z,100316.41
2023-05-11T11:17:36.131Z,100315.56
2023-05-11T11:20:09.496Z,100294.50
2023-05-11T11:22:38.730Z,100316.41
2023-05-11T11:25:06.466Z,100298.41
2023-05-11T11:27:45.335Z,100310.72
2023-05-11T11:30:22.440Z,100293.38
2023-05-11T11:32:53.529Z,100278.81
2023-05-11T11:35:40.892Z,100290.97
2023-05-11T11:38:08.794Z,100279.78
2023-05-11T11:40:49.578Z,100297.59
2023-05-11T11:43:22.217Z,100235.09
2023-05-11T11:45:55.398Z,100282.22
2023-05-11T11:48:32.504Z,100291.47
2023-05-11T11:51:10.598Z,100270.88
2023-05-11T11:53:44.838Z,100294.53
2023-05-11T11:56:14.615Z,100285.59
2023-05-11T11:58:41.522Z,100288.22
2023-05-11T12:01:12.060Z,100285.28
2023-05-11T12:03:39.569Z,100284.63
2023-05-11T12:06:08.715Z,100255.97
2023-05-11T12:08:36.411Z,100283.19
2023-05-11T12:11:03.834Z,100280.28
2023-05-11T12:13:30.907Z,100247.41
2023-05-11T12:16:14.168Z,100278.34
2023-05-11T12:18:52.155Z,100259.88
2023-05-11T12:21:20.034Z,100259.22
2023-05-11T12:23:57.100Z,100267.19
2023-05-11T12:26:25.622Z,100254.22
2023-05-11T12:29:10.087Z,100240.44
2023-05-11T12:31:47.807Z,100274.78
2023-05-11T12:34:18.424Z,100264.88
2023-05-11T12:36:47.202Z,100268.13
2023-05-11T12:39:24.119Z,100209.84
2023-05-11T12:41:52.863Z,100232.81
2023-05-11T12:44:20.629Z,100240.94
2023-05-11T12:46:48.526Z,100251.63
2023-05-11T12:51:51.092Z,100251.78
2023-05-11T12:54:34.821Z,100243.16
2023-05-11T12:57:07.925Z,100230.41
2023-05-11T12:59:37.577Z,100236.69
2023-05-11T13:02:27.949Z,100222.13
2023-05-11T13:04:55.080Z,100235.41
2023-05-11T13:07:26.204Z,100237.81
2023-05-11T13:09:59.784Z,100221.78
2023-05-11T13:12:28.055Z,100211.47
2023-05-11T13:15:14.720Z,100216.63
2023-05-11T13:17:42.408Z,100220.03
2023-05-11T13:20:22.563Z,100216.94
2023-05-11T13:22:49.943Z,100221.44
2023-05-11T13:25:19.503Z,100172.09
2023-05-11T13:27:46.584Z,100216.78
2023-05-11T13:30:15.289Z,100185.25
2023-05-11T13:32:42.468Z,100209.97
2023-05-11T13:35:09.635Z,100206.25
2023-05-11T13:37:37.647Z,100191.69
2023-05-11T13:40:10.711Z,100185.53
2023-05-11T13:42:37.918Z,100206.72
2023-05-11T13:45:05.917Z,100158.03
2023-05-11T13:47:34.629Z,100198.91
2023-05-11T13:50:01.949Z,100206.06
2023-05-11T13:52:29.412Z,100192.31
2023-05-11T13:54:58.549Z,100166.72
2023-05-11T13:57:25.444Z,100184.19
2023-05-11T13:59:52.968Z,100151.84
2023-05-11T14:02:20.182Z,100169.16
2023-05-11T14:04:47.076Z,100164.63
2023-05-11T14:07:15.601Z,100133.41
2023-05-11T14:09:44.234Z,100176.72
2023-05-11T14:12:11.123Z,100162.66
2023-05-11T14:14:38.549Z,100154.41
2023-05-11T14:17:07.085Z,100137.00
2023-05-11T14:19:36.608Z,100146.03
2023-05-11T14:22:04.256Z,100129.69
2023-05-11T14:24:32.298Z,100163.00
2023-05-11T14:26:59.746Z,100153.28
2023-05-11T14:29:27.110Z,100128.88
2023-05-11T14:31:54.334Z,100148.09
2023-05-11T14:34:21.679Z,100175.63
2023-05-11T14:36:49.616Z,100157.13
2023-05-11T14:39:16.851Z,100151.00
2023-05-11T14:41:43.727Z,100160.22
2023-05-11T14:44:10.684Z,100148.59
2023-05-11T14:46:37.444Z,100163.16
2023-05-11T14:49:05.644Z,100102.84
2023-05-11T14:51:32.899Z,100146.63
2023-05-11T14:54:00.517Z,100102.97
2023-05-11T14:56:27.498Z,100147.78
2023-05-11T14:58:55.850Z,100148.59
2023-05-11T15:01:23.162Z,100107.81
2023-05-11T15:03:50.295Z,100120.97
2023-05-11T15:06:21.548Z,100151.66
2023-05-11T15:08:50.118Z,100117.25
2023-05-11T15:11:17.740Z,100120.00
2023-05-11T15:13:47.593Z,100120.31
2023-05-11T15:16:14.620Z,100160.47
2023-05-11T15:18:42.929Z,100143.78
2023-05-11T15:21:49.293Z,100162.88
2023-05-11T15:24:16.258Z,100090.44
2023-05-11T15:26:43.176Z,100071.03
2023-05-11T15:29:13.218Z,100123.41
2023-05-11T15:31:42.169Z,100085.25
2023-05-11T15:34:12.346Z,100158.69
2023-05-11T15:36:43.106Z,100088.19
2023-05-11T15:39:19.536Z,100115.84
2023-05-11T15:41:47.524Z,100171.13
2023-05-11T15:44:16.815Z,100150.91
2023-05-11T15:46:44.937Z,100153.66
2023-05-11T15:49:17.367Z,100155.47
2023-05-11T15:51:49.216Z,100153.66
2023-05-11T15:54:16.667Z,100141.22
2023-05-11T15:56:47.860Z,100168.22
2023-05-11T15:59:17.301Z,100155.47
2023-05-11T16:01:45.207Z,100161.63
2023-05-11T16:04:14.850Z,100134.63
2023-05-11T16:06:50.652Z,100147.41
2023-05-11T16:09:23.165Z,100150.59
2023-05-11T16:11:51.703Z,100147.22
2023-05-11T16:14:22.404Z,100154.50
2023-05-11T16:17:04.839Z,100154.00
2023-05-11T16:19:33.942Z,100163.72
2023-05-11T16:22:01.649Z,100142.69
2023-05-11T16:24:34.074Z,100089.66
2023-05-11T16:27:04.291Z,100139.13
2023-05-11T16:29:36.345Z,100149.00
2023-05-11T16:32:10.552Z,100140.25
2023-05-11T16:34:42.052Z,100159.03
2023-05-11T16:37:14.802Z,100138.94
2023-05-11T16:39:53.343Z,100149.97
2023-05-11T16:42:21.055Z,100116.00
2023-05-11T16:44:48.857Z,100142.81
2023-05-11T16:47:15.946Z,100098.88
2023-05-11T16:49:43.184Z,100137.16
2023-05-11T16:52:10.142Z,100098.88
2023-05-11T16:54:37.239Z,100143.47
2023-05-11T16:57:04.542Z,100144.28
2023-05-11T16:59:33.645Z,100114.84
2023-05-11T17:02:01.204Z,100095.63
2023-05-11T17:04:28.181Z,100129.06
2023-05-11T17:06:55.522Z,100107.88
2023-05-11T17:09:22.941Z,100129.88
2023-05-11T17:11:50.928Z,100119.69
2023-05-11T17:14:17.775Z,100139.25
2023-05-11T17:16:45.654Z,100136.22
2023-05-11T17:19:12.626Z,100141.22
2023-05-11T17:21:40.188Z,100167.09
2023-05-11T17:24:08.121Z,100166.78
2023-05-11T17:26:47.321Z,100143.81
2023-05-11T17:29:16.588Z,100157.72
2023-05-11T17:31:44.722Z,100154.81
2023-05-11T17:34:11.881Z,100137.69
2023-05-11T17:36:40.139Z,100166.31
2023-05-11T17:39:09.875Z,100172.13
2023-05-11T17:41:38.046Z,100160.31
2023-05-11T17:44:06.042Z,100164.69
2023-05-11T17:46:34.679Z,100173.75
2023-05-11T17:49:02.180Z,100139.94
2023-05-11T17:51:29.176Z,100177.78
2023-05-11T17:53:58.796Z,100151.91
2023-05-11T17:56:26.836Z,100174.72
2023-05-11T17:58:55.421Z,100148.19
2023-05-11T18:01:22.786Z,100177.78
2023-05-11T18:03:49.946Z,100147.38
2023-05-11T18:06:19.606Z,100193.81
2023-05-11T18:08:46.463Z,100156.28
2023-05-11T18:11:13.940Z,100166.16
2023-05-11T18:13:40.797Z,100181.53
2023-05-11T18:16:10.449Z,100209.66
2023-05-11T18:18:38.482Z,100137.03
2023-05-11T18:21:06.102Z,100187.66
2023-05-11T18:23:34.288Z,100197.53
2023-05-11T18:26:03.636Z,100207.72
2023-05-11T18:28:31.442Z,100192.19
2023-05-11T18:31:01.642Z,100213.72
2023-05-11T18:33:30.122Z,100150.78
2023-05-11T18:35:57.136Z,100131.53
2023-05-11T18:38:24.107Z,100138.34
2023-05-11T18:40:56.550Z,100122.19
2023-05-11T18:43:23.704Z,100145.78
2023-05-11T18:45:55.082Z,100183.47
2023-05-11T18:48:23.040Z,100163.56
2023-05-11T18:50:55.409Z,100213.06
2023-05-11T18:53:22.495Z,100154.66
2023-05-11T18:55:53.494Z,100196.25
2023-05-11T18:58:21.586Z,100162.25
2023-05-11T19:00:49.191Z,100113.59
2023-05-11T19:03:17.734Z,100150.94
2023-05-11T19:05:45.007Z,100183.78
2023-05-11T19:08:14.705Z,100165.66
2023-05-11T19:10:45.530Z,100128.00
2023-05-11T19:13:13.810Z,100196.25
2023-05-11T19:15:41.771Z,100163.88
2023-05-11T19:18:23.044Z,100184.75
2023-05-11T19:21:00.674Z,100217.47
2023-05-11T19:23:34.800Z,100187.66
2023-05-11T19:26:07.329Z,100159.72
2023-05-11T19:28:36.700Z,100178.63
2023-05-11T19:31:07.233Z,100214.06
2023-05-11T19:33:37.096Z,100183.00
2023-05-11T19:36:04.148Z,100183.63
2023-05-11T19:38:31.265Z,100201.44
2023-05-11T19:41:05.748Z,100211.28
2023-05-11T19:43:35.136Z,100185.25
2023-05-11T19:46:07.955Z,100149.16
2023-05-11T19:48:36.471Z,100228.94
2023-05-11T19:51:03.753Z,100197.41
2023-05-11T19:53:31.062Z,100190.59
2023-05-11T19:55:58.596Z,100254.50
2023-05-11T19:58:25.704Z,100253.88
2023-05-11T20:00:52.503Z,100223.75
2023-05-11T20:03:20.485Z,100255.47
2023-05-11T20:05:47.735Z,100219.88
2023-05-11T20:08:14.797Z,100249.34
2023-05-11T20:10:41.652Z,100238.97
2023-05-11T20:13:08.980Z,100191.41
2023-05-11T20:15:36.103Z,100273.47
2023-05-11T20:18:03.286Z,100191.56
2023-05-11T20:20:37.353Z,100217.59
2023-05-11T20:23:06.511Z,100280.25
2023-05-11T20:25:34.215Z,100202.88
2023-05-11T20:28:01.273Z,100210.19
2023-05-11T20:30:28.545Z,100251.44
2023-05-11T20:35:25.426Z,100245.13
2023-05-11T20:37:54.086Z,100254.03
2023-05-11T20:40:21.893Z,100264.56
2023-05-11T20:42:48.942Z,100184.94
2023-05-11T20:45:15.822Z,100250.47
2023-05-11T20:47:42.854Z,100216.31
2023-05-11T20:50:10.266Z,100241.56
2023-05-11T20:52:38.131Z,100251.28
2023-05-11T20:55:07.345Z,100231.19
2023-05-11T20:57:34.334Z,100231.88
2023-05-11T21:00:04.515Z,100224.91
2023-05-11T21:02:32.155Z,100216.31
2023-05-11T21:05:02.595Z,100223.28
2023-05-11T21:07:34.723Z,100229.75
2023-05-11T21:10:02.888Z,100247.88
2023-05-11T21:12:29.998Z,100209.53
2023-05-11T21:14:57.105Z,100210.97
2023-05-11T21:17:24.993Z,100234.44
2023-05-11T21:19:52.617Z,100230.06
2023-05-11T21:22:19.384Z,100237.38
2023-05-11T21:24:46.188Z,100203.22
2023-05-11T21:27:13.476Z,100218.72
2023-05-11T21:29:41.330Z,100245.44
2023-05-11T21:32:08.763Z,100198.00
2023-05-11T21:34:36.299Z,100241.56
2023-05-11T21:37:05.046Z,100228.63
2023-05-11T21:39:32.360Z,100213.06
2023-05-11T21:41:59.893Z,100232.50
2023-05-11T21:44:26.805Z,100201.75
2023-05-11T21:46:55.689Z,100254.50
2023-05-11T21:49:23.185Z,100194.16
2023-05-11T21:51:50.418Z,100229.59
2023-05-11T21:54:17.649Z,100252.91
2023-05-11T21:56:44.402Z,100254.53
2023-05-11T21:59:11.620Z,100232.00
2023-05-11T22:01:38.817Z,100259.06
2023-05-11T22:04:06.343Z,100227.00
2023-05-11T22:06:33.102Z,100252.44
2023-05-11T22:09:00.596Z,100247.88
2023-05-11T22:11:28.046Z,100230.56
2023-05-11T22:13:55.382Z,100240.25
2023-05-11T22:16:22.395Z,100225.06
2023-05-11T22:18:51.310Z,100249.34
2023-05-11T22:21:19.342Z,100253.22
2023-05-11T22:23:47.989Z,100213.22
2023-05-11T22:26:16.542Z,100211.97
2023-05-11T22:28:43.415Z,100205.31
2023-05-11T22:31:10.493Z,100236.88
2023-05-11T22:33:37.178Z,100230.56
2023-05-11T22:36:04.161Z,100234.75
2023-05-11T22:38:32.892Z,100243.38
2023-05-11T22:41:00.288Z,100232.50
2023-05-11T22:43:28.680Z,100221.19
2023-05-11T22:45:55.652Z,100229.25
2023-05-11T22:48:22.796Z,100199.97
2023-05-11T22:50:49.631Z,100236.41
2023-05-11T22:53:16.500Z,100245.44
2023-05-11T22:55:44.637Z,100246.13
2023-05-11T22:58:11.381Z,100235.13
2023-05-11T23:00:39.472Z,100230.91
2023-05-11T23:03:06.424Z,100246.91
2023-05-11T23:05:33.694Z,100217.13
2023-05-11T23:08:00.421Z,100242.22
2023-05-11T23:10:28.597Z,100230.91
2023-05-11T23:12:56.864Z,100225.06
2023-05-11T23:15:23.595Z,100242.53
2023-05-11T23:17:51.524Z,100196.56
2023-05-11T23:20:18.607Z,100235.09
2023-05-11T23:22:45.803Z,100225.72
2023-05-11T23:25:12.404Z,100227.31
2023-05-11T23:27:39.034Z,100254.53
2023-05-11T23:30:06.285Z,100207.09
2023-05-11T23:32:33.451Z,100252.09
2023-05-11T23:35:00.204Z,100242.69
2023-05-11T23:37:27.049Z,100215.97
2023-05-11T23:39:54.079Z,100210.66
2023-05-11T23:42:20.813Z,100238.81
2023-05-11T23:44:47.584Z,100250.63
2023-05-11T23:47:15.278Z,100219.06
2023-05-11T23:49:47.089Z,100216.47
2023-05-11T23:52:18.345Z,100198.69
2023-05-11T23:54:53.985Z,100195.94
2023-05-11T23:57:29.977Z,100168.56
2023-05-11T23:59:57.225Z,100230.75
